Terminal Aerodrome Forecast
Issued by NWS

Home | Current Version | Previous Version | Graphics & Text | Print | Product List | Glossary On
Versions: 1 2 3 4 5 6 7 8 9 10 11 12 13 14 15 16 17 18 19 20 21 22 23 24 25 26 27 28 29 30 31 32
000
FTUS43 KTOP 250300 AAB
TAFFOE
TAF AMD
KFOE 250316Z 2503/2524 31006KT P6SM OVC013
     FM250800 VRB03KT 6SM BR OVC007
     FM251300 17006KT P6SM SCT012 BKN120
     FM251900 01015G24KT P6SM BKN035 BKN100=

USA.gov is the U.S. government's official web portal to all federal, state and local government web resources and services.